Time;durP1;ratioP1;P1;durP2;ratioP2;P2;SDS_P1;SDS_P2;PMS_P1;PMS_P2;Temp;Humidity;BMP_temperature;BMP_pressure;BME280_temperature;BME280_humidity;BME280_pressure;Samples;Min_cycle;Max_cycle;Signal;HPM_P1;HPM_P2
2021/01/19 00:00:53;;;;;;;15.13;2.80;;;;;;;;;;5069318;28;20115;-75
2021/01/19 00:03:20;;;;;;;12.82;2.28;;;;;;;;;;5067478;28;20036;-73
2021/01/19 00:05:47;;;;;;;15.20;2.78;;;;;;;;;;5073805;28;20115;-72
2021/01/19 00:08:14;;;;;;;13.82;2.13;;;;;;;;;;5068832;28;20029;-73
2021/01/19 00:10:41;;;;;;;17.00;3.25;;;;;;;;;;5069845;28;20123;-73
2021/01/19 00:13:08;;;;;;;15.15;3.10;;;;;;;;;;5071331;28;20127;-72
2021/01/19 00:15:35;;;;;;;12.48;2.85;;;;;;;;;;5074572;28;20024;-72
2021/01/19 00:18:02;;;;;;;15.90;3.22;;;;;;;;;;5071614;28;20024;-71
2021/01/19 00:20:29;;;;;;;11.80;1.98;;;;;;;;;;5074012;28;20077;-72
2021/01/19 00:22:56;;;;;;;13.32;2.38;;;;;;;;;;5071727;28;20032;-72
2021/01/19 00:25:23;;;;;;;14.43;2.25;;;;;;;;;;5074339;28;20051;-71
2021/01/19 00:27:51;;;;;;;14.55;2.53;;;;;;;;;;5071300;28;20029;-71
2021/01/19 00:30:18;;;;;;;13.60;2.88;;;;;;;;;;5073732;28;20836;-72
2021/01/19 00:32:45;;;;;;;11.13;2.72;;;;;;;;;;5072112;28;20038;-71
2021/01/19 00:35:12;;;;;;;20.17;3.17;;;;;;;;;;5074198;28;20059;-74
2021/01/19 00:37:39;;;;;;;14.23;2.35;;;;;;;;;;5072083;28;20488;-72
2021/01/19 00:40:07;;;;;;;13.70;3.72;;;;;;;;;;5072788;28;20436;-72
2021/01/19 00:42:34;;;;;;;13.23;2.38;;;;;;;;;;5070903;28;20447;-73
2021/01/19 00:45:01;;;;;;;12.38;2.33;;;;;;;;;;5073539;28;20055;-71
2021/01/19 00:47:28;;;;;;;10.43;2.00;;;;;;;;;;5068409;28;20020;-73
2021/01/19 00:49:55;;;;;;;13.98;3.08;;;;;;;;;;5072231;28;20031;-72
2021/01/19 00:52:22;;;;;;;15.88;3.13;;;;;;;;;;5071961;28;20028;-71
2021/01/19 00:54:49;;;;;;;17.23;3.35;;;;;;;;;;5072371;28;20032;-71
2021/01/19 00:57:16;;;;;;;16.77;2.60;;;;;;;;;;5071970;28;20099;-72
2021/01/19 00:59:43;;;;;;;15.10;2.85;;;;;;;;;;5072770;28;20036;-72
2021/01/19 01:02:10;;;;;;;11.85;2.30;;;;;;;;;;5070957;28;20435;-72
2021/01/19 01:04:37;;;;;;;10.38;1.92;;;;;;;;;;5073193;28;20049;-77
2021/01/19 01:07:04;;;;;;;15.45;2.65;;;;;;;;;;5128778;22;20047;-73
2021/01/19 01:09:37;;;;;;;16.50;2.63;;;;;;;;;;5102712;28;20024;-72
2021/01/19 01:12:05;;;;;;;17.83;3.03;;;;;;;;;;5075212;28;20400;-72
2021/01/19 01:14:32;;;;;;;16.67;1.90;;;;;;;;;;5091016;28;20062;-72
2021/01/19 01:17:00;;;;;;;11.18;2.33;;;;;;;;;;5092261;28;20016;-72
2021/01/19 01:19:27;;;;;;;10.70;2.25;;;;;;;;;;5091169;28;20099;-72
2021/01/19 01:21:54;;;;;;;10.73;2.38;;;;;;;;;;5091776;28;20032;-72
2021/01/19 01:24:21;;;;;;;14.98;2.60;;;;;;;;;;5087851;28;20024;-73
2021/01/19 01:29:14;;;;;;;14.23;2.53;;;;;;;;;;5080026;22;20463;-73
2021/01/19 01:31:41;;;;;;;14.05;2.60;;;;;;;;;;5072247;28;20039;-73
2021/01/19 01:34:08;;;;;;;11.02;1.85;;;;;;;;;;5052017;28;20023;-72
2021/01/19 01:36:42;;;;;;;18.05;3.35;;;;;;;;;;5064760;28;20048;-70
2021/01/19 01:39:09;;;;;;;7.53;1.55;;;;;;;;;;5061233;28;20473;-71
2021/01/19 01:41:36;;;;;;;17.17;3.10;;;;;;;;;;5054781;28;20131;-71
2021/01/19 01:44:03;;;;;;;10.68;1.95;;;;;;;;;;5068044;28;20017;-71
2021/01/19 01:46:32;;;;;;;8.73;1.90;;;;;;;;;;5068321;28;20032;-70
2021/01/19 01:48:59;;;;;;;13.30;2.10;;;;;;;;;;5056888;28;20024;-72
2021/01/19 01:51:26;;;;;;;12.55;2.40;;;;;;;;;;5052164;28;20020;-72
2021/01/19 01:53:53;;;;;;;14.45;2.63;;;;;;;;;;5063139;28;20028;-71
2021/01/19 01:56:20;;;;;;;13.50;3.38;;;;;;;;;;5072327;28;20497;-72
2021/01/19 01:58:47;;;;;;;12.82;2.15;;;;;;;;;;5070186;28;20040;-72
2021/01/19 02:01:15;;;;;;;17.00;3.40;;;;;;;;;;5072056;28;20012;-72
2021/01/19 02:03:42;;;;;;;18.02;3.15;;;;;;;;;;5066787;28;20033;-71
2021/01/19 02:06:09;;;;;;;17.42;3.83;;;;;;;;;;5069256;28;20020;-71
2021/01/19 02:08:42;;;;;;;18.77;3.88;;;;;;;;;;5061612;28;20028;-71
2021/01/19 02:11:18;;;;;;;21.52;3.65;;;;;;;;;;5072226;28;20021;-71
2021/01/19 02:13:54;;;;;;;16.25;3.05;;;;;;;;;;5069568;28;20036;-71
2021/01/19 02:16:44;;;;;;;19.27;2.35;;;;;;;;;;5072040;28;20021;-70
2021/01/19 02:19:11;;;;;;;14.15;2.97;;;;;;;;;;5059452;28;20072;-71
2021/01/19 02:21:56;;;;;;;17.45;2.83;;;;;;;;;;5071332;28;20036;-71
2021/01/19 02:24:23;;;;;;;13.75;2.85;;;;;;;;;;5069660;28;20093;-71
2021/01/19 02:27:09;;;;;;;14.07;2.42;;;;;;;;;;5071087;28;20039;-71
2021/01/19 02:29:39;;;;;;;13.23;3.15;;;;;;;;;;5070650;28;20040;-70
2021/01/19 02:32:14;;;;;;;21.73;5.05;;;;;;;;;;5072001;28;20024;-70
2021/01/19 02:34:45;;;;;;;18.88;5.10;;;;;;;;;;5071246;28;20028;-71
2021/01/19 02:37:13;;;;;;;22.30;4.38;;;;;;;;;;5068639;28;20028;-71
2021/01/19 02:39:46;;;;;;;31.45;4.70;;;;;;;;;;5071138;28;20063;-70
2021/01/19 02:42:15;;;;;;;19.15;3.72;;;;;;;;;;5066893;28;20037;-70
2021/01/19 02:44:43;;;;;;;21.98;4.72;;;;;;;;;;5069809;28;20381;-71
2021/01/19 02:47:10;;;;;;;18.33;4.70;;;;;;;;;;5071054;28;20036;-70
2021/01/19 02:49:37;;;;;;;21.38;4.07;;;;;;;;;;5070465;28;20095;-71
2021/01/19 02:52:04;;;;;;;18.80;3.78;;;;;;;;;;5072099;28;20043;-71
2021/01/19 02:54:33;;;;;;;22.08;4.50;;;;;;;;;;5064929;28;20013;-70
2021/01/19 02:57:12;;;;;;;15.13;3.00;;;;;;;;;;5071350;28;20028;-71
2021/01/19 02:59:45;;;;;;;15.30;3.47;;;;;;;;;;5070799;28;20185;-71
2021/01/19 03:02:16;;;;;;;15.38;3.15;;;;;;;;;;5071643;28;20058;-71
2021/01/19 03:04:44;;;;;;;12.68;2.78;;;;;;;;;;5075031;28;20021;-71
2021/01/19 03:07:12;;;;;;;19.63;4.00;;;;;;;;;;5074546;28;20029;-71
2021/01/19 03:09:40;;;;;;;20.02;3.65;;;;;;;;;;5074617;28;20027;-71
2021/01/19 03:12:13;;;;;;;18.65;4.75;;;;;;;;;;5075138;28;20473;-71
2021/01/19 03:14:41;;;;;;;19.92;3.60;;;;;;;;;;5071254;28;20063;-71
2021/01/19 03:17:09;;;;;;;24.52;4.38;;;;;;;;;;5072699;28;20029;-71
2021/01/19 03:19:45;;;;;;;22.60;3.78;;;;;;;;;;5067663;28;20025;-71
2021/01/19 03:22:12;;;;;;;12.02;3.53;;;;;;;;;;5036707;28;20029;-72
2021/01/19 03:24:39;;;;;;;20.92;4.78;;;;;;;;;;5055801;28;20079;-71
2021/01/19 03:27:07;;;;;;;18.27;4.50;;;;;;;;;;5055086;28;20024;-71
2021/01/19 03:29:34;;;;;;;16.92;4.35;;;;;;;;;;5067094;28;20527;-71
2021/01/19 03:32:01;;;;;;;16.63;3.33;;;;;;;;;;5052760;28;20033;-69
2021/01/19 03:34:29;;;;;;;13.50;3.00;;;;;;;;;;5069646;28;20036;-70
2021/01/19 03:36:56;;;;;;;15.15;2.70;;;;;;;;;;5075648;28;20020;-70
2021/01/19 03:39:23;;;;;;;22.52;3.78;;;;;;;;;;5073973;28;20107;-70
2021/01/19 03:41:50;;;;;;;20.95;3.08;;;;;;;;;;5072278;28;20036;-71
2021/01/19 03:44:17;;;;;;;22.40;3.33;;;;;;;;;;5071313;28;20033;-70
2021/01/19 03:46:44;;;;;;;20.00;4.03;;;;;;;;;;5075042;28;20121;-70
2021/01/19 03:49:11;;;;;;;22.20;3.85;;;;;;;;;;5072230;28;20035;-71
2021/01/19 03:51:39;;;;;;;21.15;4.85;;;;;;;;;;5072786;28;20025;-71
2021/01/19 03:54:06;;;;;;;24.13;5.03;;;;;;;;;;5072360;28;20491;-71
2021/01/19 03:56:33;;;;;;;17.30;4.35;;;;;;;;;;5069261;28;20660;-71
2021/01/19 03:59:00;;;;;;;22.05;4.55;;;;;;;;;;5061180;28;20028;-71
2021/01/19 04:03:53;;;;;;;19.90;4.68;;;;;;;;;;5071572;22;20048;-75
2021/01/19 04:06:20;;;;;;;19.88;3.72;;;;;;;;;;5074412;28;20031;-74
2021/01/19 04:08:47;;;;;;;18.02;3.92;;;;;;;;;;5071794;28;20021;-74
2021/01/19 04:11:14;;;;;;;19.52;4.35;;;;;;;;;;5071716;28;20056;-72
2021/01/19 04:13:41;;;;;;;27.52;4.90;;;;;;;;;;5071152;28;20484;-73
2021/01/19 04:16:08;;;;;;;15.85;3.80;;;;;;;;;;5074578;28;20485;-72
2021/01/19 04:18:35;;;;;;;21.38;4.07;;;;;;;;;;5072944;28;20032;-69
2021/01/19 04:21:03;;;;;;;23.55;5.03;;;;;;;;;;5072425;28;20021;-72
2021/01/19 04:23:30;;;;;;;21.55;4.85;;;;;;;;;;5070494;28;20037;-70
2021/01/19 04:25:57;;;;;;;21.80;4.18;;;;;;;;;;5090608;28;20026;-72
2021/01/19 04:28:24;;;;;;;15.18;3.13;;;;;;;;;;5081094;28;20476;-71
2021/01/19 04:30:51;;;;;;;23.20;4.55;;;;;;;;;;5055766;28;20033;-71
2021/01/19 04:33:18;;;;;;;30.08;6.72;;;;;;;;;;5068196;28;20032;-72
2021/01/19 04:35:45;;;;;;;28.63;5.50;;;;;;;;;;5074304;28;20063;-72
2021/01/19 04:38:13;;;;;;;26.73;4.47;;;;;;;;;;5069390;28;20086;-72
2021/01/19 04:40:40;;;;;;;19.35;4.78;;;;;;;;;;5071209;28;20025;-71
2021/01/19 04:43:07;;;;;;;26.73;4.88;;;;;;;;;;5064930;28;20044;-72
2021/01/19 04:45:34;;;;;;;22.67;4.53;;;;;;;;;;5067709;28;20063;-73
2021/01/19 04:48:02;;;;;;;21.95;4.30;;;;;;;;;;5065066;28;20387;-74
2021/01/19 04:50:29;;;;;;;24.60;5.25;;;;;;;;;;5064347;28;20056;-75
2021/01/19 04:52:59;;;;;;;24.25;4.35;;;;;;;;;;5069436;28;20024;-74
2021/01/19 04:55:27;;;;;;;28.75;5.03;;;;;;;;;;5091899;22;20057;-73
2021/01/19 04:58:01;;;;;;;22.77;4.50;;;;;;;;;;5067748;28;20032;-74
2021/01/19 05:00:28;;;;;;;;;;;;;;;;;;5064188;28;20052;-74
2021/01/19 05:03:01;;;;;;;27.70;5.90;;;;;;;;;;5045018;28;19916;-73
2021/01/19 05:05:28;;;;;;;24.80;5.00;;;;;;;;;;5068232;28;20056;-73
2021/01/19 05:08:04;;;;;;;26.00;5.72;;;;;;;;;;5070707;28;20036;-73
2021/01/19 05:10:35;;;;;;;26.05;5.22;;;;;;;;;;5066532;28;20016;-73
2021/01/19 05:13:12;;;;;;;22.63;5.35;;;;;;;;;;5076484;28;20032;-74
2021/01/19 05:15:49;;;;;;;20.38;4.18;;;;;;;;;;5121421;22;20144;-70
2021/01/19 05:18:17;;;;;;;27.58;4.63;;;;;;;;;;5105950;28;20019;-71
2021/01/19 05:20:51;;;;;;;25.42;4.80;;;;;;;;;;5105654;28;20039;-71
2021/01/19 05:23:23;;;;;;;;;;;;;;;;;;5104657;28;20024;-71
2021/01/19 05:25:54;;;;;;;33.90;4.88;;;;;;;;;;5110428;28;19912;-71
2021/01/19 05:28:34;;;;;;;20.75;4.60;;;;;;;;;;5106734;28;20100;-72
2021/01/19 05:31:03;;;;;;;20.42;4.28;;;;;;;;;;5111702;28;20016;-71
2021/01/19 05:33:30;;;;;;;24.10;4.55;;;;;;;;;;5109780;28;20024;-71
2021/01/19 05:36:07;;;;;;;25.50;5.53;;;;;;;;;;5111580;28;20047;-72
2021/01/19 05:38:46;;;;;;;28.25;6.50;;;;;;;;;;5107369;28;20106;-72
2021/01/19 05:41:45;;;;;;;21.70;4.63;;;;;;;;;;5112744;28;20506;-73
2021/01/19 05:44:17;;;;;;;21.90;3.83;;;;;;;;;;5049232;28;20043;-72
2021/01/19 05:46:50;;;;;;;22.95;6.07;;;;;;;;;;5107153;28;20035;-71
2021/01/19 05:49:25;;;;;;;26.23;4.18;;;;;;;;;;5102459;28;20638;-72
2021/01/19 05:51:56;;;;;;;17.00;3.25;;;;;;;;;;5092576;28;20461;-80
2021/01/19 05:54:32;;;;;;;23.20;3.95;;;;;;;;;;5098139;22;20051;-73
2021/01/19 05:57:09;;;;;;;21.58;4.68;;;;;;;;;;5091198;28;20016;-75
2021/01/19 05:59:43;;;;;;;19.33;3.75;;;;;;;;;;5081598;28;20029;-73
2021/01/19 06:02:14;;;;;;;19.60;5.18;;;;;;;;;;5051602;28;20085;-72
2021/01/19 06:04:47;;;;;;;24.40;5.03;;;;;;;;;;5067760;28;20033;-74
2021/01/19 06:07:14;;;;;;;20.90;4.90;;;;;;;;;;5054973;28;20079;-72
2021/01/19 06:09:45;;;;;;;18.50;3.35;;;;;;;;;;5070318;28;20028;-72
2021/01/19 06:12:12;;;;;;;25.42;5.22;;;;;;;;;;5068200;28;20047;-72
2021/01/19 06:14:39;;;;;;;21.92;4.35;;;;;;;;;;5071657;28;20357;-71
2021/01/19 06:17:07;;;;;;;20.20;4.43;;;;;;;;;;5071661;28;20060;-73
2021/01/19 06:19:34;;;;;;;23.45;4.07;;;;;;;;;;5067094;28;20048;-71
2021/01/19 06:22:08;;;;;;;19.67;4.22;;;;;;;;;;5071905;28;20041;-71
2021/01/19 06:24:35;;;;;;;;;;;;;;;;;;5070996;28;20027;-71
2021/01/19 06:27:02;;;;;;;22.25;5.03;;;;;;;;;;5054086;28;20018;-71
2021/01/19 06:29:31;;;;;;;21.38;3.08;;;;;;;;;;5067903;28;20024;-71
2021/01/19 06:32:03;;;;;;;23.33;4.60;;;;;;;;;;5067903;28;20063;-71
2021/01/19 06:34:33;;;;;;;17.80;4.03;;;;;;;;;;5068834;28;20048;-71
2021/01/19 06:37:01;;;;;;;22.88;4.50;;;;;;;;;;5070984;28;20017;-73
2021/01/19 06:39:32;;;;;;;17.90;4.82;;;;;;;;;;5070569;28;20029;-71
2021/01/19 06:42:05;;;;;;;21.63;4.30;;;;;;;;;;5071471;28;20039;-71
2021/01/19 06:44:36;;;;;;;25.50;4.55;;;;;;;;;;5069069;28;20028;-71
2021/01/19 06:47:04;;;;;;;24.60;4.82;;;;;;;;;;5071230;28;20029;-71
2021/01/19 06:49:33;;;;;;;21.17;4.28;;;;;;;;;;5067633;28;20089;-72
2021/01/19 06:52:04;;;;;;;17.73;4.53;;;;;;;;;;5071122;28;20033;-73
2021/01/19 06:54:35;;;;;;;25.98;4.47;;;;;;;;;;5070503;28;20039;-74
2021/01/19 06:57:13;;;;;;;25.45;3.90;;;;;;;;;;5071893;28;20032;-74
2021/01/19 06:59:47;;;;;;;27.27;4.57;;;;;;;;;;5107392;22;20574;-74
2021/01/19 07:02:17;;;;;;;21.67;4.35;;;;;;;;;;5071438;28;20526;-74
2021/01/19 07:04:48;;;;;;;16.15;3.55;;;;;;;;;;5086699;22;20059;-74
2021/01/19 07:07:27;;;;;;;20.15;3.45;;;;;;;;;;5066047;28;20033;-74
2021/01/19 07:10:00;;;;;;;24.38;5.47;;;;;;;;;;5071644;22;20076;-76
2021/01/19 07:12:42;;;;;;;25.38;5.68;;;;;;;;;;5062697;22;20297;-73
2021/01/19 07:15:10;;;;;;;20.10;5.88;;;;;;;;;;5050334;28;20040;-74
2021/01/19 07:17:55;;;;;;;20.52;3.67;;;;;;;;;;5049473;28;20028;-75
2021/01/19 07:20:29;;;;;;;21.33;5.45;;;;;;;;;;5051090;28;20280;-75
2021/01/19 07:22:57;;;;;;;18.73;3.38;;;;;;;;;;5093582;22;20059;-75
2021/01/19 07:25:25;;;;;;;19.95;4.25;;;;;;;;;;5089531;28;20020;-75
2021/01/19 07:27:52;;;;;;;18.83;4.10;;;;;;;;;;5088668;28;20024;-77
2021/01/19 07:30:20;;;;;;;21.55;3.85;;;;;;;;;;5091587;28;20016;-78
2021/01/19 07:32:51;;;;;;;15.13;3.67;;;;;;;;;;5084309;28;20028;-77
2021/01/19 07:35:22;;;;;;;21.00;4.70;;;;;;;;;;5090681;28;20031;-78
2021/01/19 07:37:57;;;;;;;24.40;3.97;;;;;;;;;;5109221;22;20055;-78
2021/01/19 07:40:25;;;;;;;20.25;4.80;;;;;;;;;;5079443;28;20090;-76
2021/01/19 07:42:53;;;;;;;18.80;4.28;;;;;;;;;;5087418;28;20040;-75
2021/01/19 07:45:30;;;;;;;21.05;3.55;;;;;;;;;;5091630;28;20021;-76
2021/01/19 07:48:05;;;;;;;15.70;4.05;;;;;;;;;;5088981;28;20504;-79
2021/01/19 07:50:40;;;;;;;19.73;3.85;;;;;;;;;;5093825;28;20032;-76
2021/01/19 07:53:09;;;;;;;15.90;4.05;;;;;;;;;;5091709;28;20020;-74
2021/01/19 07:55:43;;;;;;;17.75;3.97;;;;;;;;;;5095009;28;20017;-76
2021/01/19 07:58:21;;;;;;;15.02;3.10;;;;;;;;;;5091481;28;20035;-76
2021/01/19 08:00:49;;;;;;;17.00;4.30;;;;;;;;;;5091807;28;20046;-76
2021/01/19 08:03:16;;;;;;;18.25;4.35;;;;;;;;;;5091091;28;20083;-76
2021/01/19 08:05:43;;;;;;;13.65;2.17;;;;;;;;;;5094040;28;20099;-75
2021/01/19 08:08:14;;;;;;;21.48;3.78;;;;;;;;;;5092366;28;20032;-77
2021/01/19 08:10:41;;;;;;;14.85;3.47;;;;;;;;;;5094318;28;20058;-76
2021/01/19 08:13:18;;;;;;;12.98;2.83;;;;;;;;;;5081347;22;20524;-76
2021/01/19 08:15:48;;;;;;;14.23;3.10;;;;;;;;;;5092196;28;20024;-77
2021/01/19 08:18:18;;;;;;;18.48;3.97;;;;;;;;;;5088512;28;20399;-76
2021/01/19 08:20:47;;;;;;;19.90;4.03;;;;;;;;;;5067632;28;20493;-75
2021/01/19 08:23:16;;;;;;;15.15;3.05;;;;;;;;;;5063214;28;20041;-74
2021/01/19 08:25:44;;;;;;;15.18;2.65;;;;;;;;;;5054163;28;20013;-75
2021/01/19 08:28:13;;;;;;;16.50;2.75;;;;;;;;;;5056968;28;20058;-76
2021/01/19 08:30:40;;;;;;;14.45;3.25;;;;;;;;;;5091139;28;20024;-76
2021/01/19 08:33:08;;;;;;;11.70;1.83;;;;;;;;;;5073621;28;20036;-75
2021/01/19 08:35:38;;;;;;;14.05;2.33;;;;;;;;;;5064702;28;20032;-74
2021/01/19 08:38:05;;;;;;;12.27;2.08;;;;;;;;;;5072431;28;20032;-73
2021/01/19 08:40:33;;;;;;;13.40;2.65;;;;;;;;;;5071684;28;21249;-73
2021/01/19 08:43:00;;;;;;;12.60;2.10;;;;;;;;;;5064181;28;20037;-76
2021/01/19 08:45:32;;;;;;;13.90;2.40;;;;;;;;;;5058723;28;20027;-73
2021/01/19 08:48:02;;;;;;;16.02;3.55;;;;;;;;;;5062424;28;20573;-73
2021/01/19 08:50:33;;;;;;;15.70;3.10;;;;;;;;;;5064377;28;20385;-73
2021/01/19 08:53:07;;;;;;;10.43;2.28;;;;;;;;;;5073077;28;20496;-73
2021/01/19 08:55:35;;;;;;;11.65;2.63;;;;;;;;;;5064625;28;20032;-73
2021/01/19 08:58:02;;;;;;;10.95;2.00;;;;;;;;;;5058845;28;20025;-76
2021/01/19 09:00:30;;;;;;;12.02;3.03;;;;;;;;;;5065821;28;20025;-73
2021/01/19 09:02:58;;;;;;;8.48;2.15;;;;;;;;;;5070949;28;20040;-73
2021/01/19 09:05:26;;;;;;;11.90;2.75;;;;;;;;;;5084190;28;20476;-72
2021/01/19 09:07:54;;;;;;;14.13;2.42;;;;;;;;;;5076020;28;20078;-76
2021/01/19 09:10:39;;;;;;;11.18;3.22;;;;;;;;;;5053542;28;20098;-75
2021/01/19 09:13:06;;;;;;;13.35;2.88;;;;;;;;;;5081749;22;20064;-75
2021/01/19 09:15:43;;;;;;;12.48;2.50;;;;;;;;;;5108593;22;20044;-75
2021/01/19 09:18:15;;;;;;;12.82;2.08;;;;;;;;;;5093539;28;20511;-75
2021/01/19 09:20:42;;;;;;;9.13;1.48;;;;;;;;;;5097946;22;20039;-75
2021/01/19 09:23:15;;;;;;;11.15;1.92;;;;;;;;;;5072443;28;20101;-76
2021/01/19 09:25:48;;;;;;;11.23;1.88;;;;;;;;;;5072042;28;20380;-75
2021/01/19 09:28:16;;;;;;;14.10;2.13;;;;;;;;;;5054445;28;20047;-76
2021/01/19 09:30:43;;;;;;;13.13;2.22;;;;;;;;;;5058756;22;20409;-75
2021/01/19 09:33:12;;;;;;;9.93;1.40;;;;;;;;;;5052353;28;20036;-75
2021/01/19 09:35:40;;;;;;;6.50;1.25;;;;;;;;;;5051607;28;20117;-76
2021/01/19 09:38:24;;;;;;;15.30;2.72;;;;;;;;;;5051738;28;20390;-76
2021/01/19 09:40:52;;;;;;;10.38;1.52;;;;;;;;;;5032319;28;20034;-76
2021/01/19 09:43:31;;;;;;;16.40;2.70;;;;;;;;;;5032480;28;20083;-76
2021/01/19 09:46:00;;;;;;;9.77;1.90;;;;;;;;;;5057686;22;20116;-76
2021/01/19 09:48:29;;;;;;;13.27;2.05;;;;;;;;;;5052463;28;20120;-75
2021/01/19 09:51:03;;;;;;;7.93;1.73;;;;;;;;;;5051020;28;20416;-76
2021/01/19 09:53:35;;;;;;;10.57;1.88;;;;;;;;;;5034250;28;20025;-76
2021/01/19 09:56:02;;;;;;;8.65;2.63;;;;;;;;;;5051628;28;20024;-76
2021/01/19 09:58:30;;;;;;;10.07;1.60;;;;;;;;;;5033154;28;20037;-76
2021/01/19 10:00:57;;;;;;;12.70;1.88;;;;;;;;;;5052452;28;20477;-76
2021/01/19 10:03:25;;;;;;;13.15;1.80;;;;;;;;;;5051310;28;20082;-76
2021/01/19 10:05:59;;;;;;;8.93;2.10;;;;;;;;;;5051813;28;20025;-75
2021/01/19 10:08:27;;;;;;;9.05;1.48;;;;;;;;;;5049627;28;20067;-76
2021/01/19 10:10:54;;;;;;;7.28;1.40;;;;;;;;;;5052277;28;20453;-77
2021/01/19 10:13:29;;;;;;;10.40;1.83;;;;;;;;;;5052367;28;20508;-75
2021/01/19 10:16:01;;;;;;;13.55;2.08;;;;;;;;;;5051020;28;20020;-76
2021/01/19 10:18:28;;;;;;;12.40;2.00;;;;;;;;;;5051481;28;20108;-76
2021/01/19 10:20:55;;;;;;;11.32;2.20;;;;;;;;;;5085417;22;20090;-74
2021/01/19 10:23:30;;;;;;;10.07;1.73;;;;;;;;;;5070730;28;20181;-75
2021/01/19 10:26:10;;;;;;;10.02;1.48;;;;;;;;;;5071642;28;20484;-76
2021/01/19 10:28:42;;;;;;;9.18;1.50;;;;;;;;;;5070155;28;20028;-76
2021/01/19 10:31:22;;;;;;;9.05;1.42;;;;;;;;;;5068279;28;20017;-75
2021/01/19 10:33:56;;;;;;;10.25;2.10;;;;;;;;;;5064074;28;20025;-75
2021/01/19 10:36:23;;;;;;;;;;;;;;;;;;5067975;28;20056;-76
2021/01/19 10:38:50;;;;;;;10.43;1.70;;;;;;;;;;5065811;28;19909;-76
2021/01/19 10:41:27;;;;;;;14.32;2.28;;;;;;;;;;5070232;28;20353;-77
2021/01/19 10:43:55;;;;;;;11.45;2.53;;;;;;;;;;5063613;28;20052;-76
2021/01/19 10:46:23;;;;;;;11.50;2.15;;;;;;;;;;5062950;28;20025;-76
2021/01/19 10:49:03;;;;;;;9.82;1.58;;;;;;;;;;5061181;28;20024;-76
2021/01/19 10:51:30;;;;;;;9.90;1.98;;;;;;;;;;5067782;28;20036;-76
2021/01/19 10:54:08;;;;;;;12.00;1.55;;;;;;;;;;5066139;28;20017;-76
2021/01/19 10:56:36;;;;;;;10.00;1.50;;;;;;;;;;5071311;28;20029;-76
2021/01/19 10:59:03;;;;;;;12.43;2.53;;;;;;;;;;5062665;28;20370;-75
2021/01/19 11:01:32;;;;;;;9.95;2.35;;;;;;;;;;5060560;28;20021;-75
2021/01/19 11:04:00;;;;;;;14.48;2.55;;;;;;;;;;5059894;28;20029;-75
2021/01/19 11:06:35;;;;;;;13.15;2.17;;;;;;;;;;5068241;28;20019;-76
2021/01/19 11:09:03;;;;;;;11.00;1.65;;;;;;;;;;5064698;28;20581;-77
2021/01/19 11:11:30;;;;;;;14.18;2.55;;;;;;;;;;5069832;28;20032;-76
2021/01/19 11:14:04;;;;;;;9.35;2.08;;;;;;;;;;5063207;28;20028;-76
2021/01/19 11:16:37;;;;;;;8.98;1.70;;;;;;;;;;5056249;28;20025;-75
2021/01/19 11:19:05;;;;;;;8.77;1.73;;;;;;;;;;5057074;28;20059;-76
2021/01/19 11:21:32;;;;;;;10.90;1.70;;;;;;;;;;5055987;22;20696;-76
2021/01/19 11:24:00;;;;;;;9.98;1.90;;;;;;;;;;5056717;22;20111;-76
2021/01/19 11:26:28;;;;;;;8.85;1.55;;;;;;;;;;5050060;28;20025;-75
2021/01/19 11:28:55;;;;;;;10.50;1.67;;;;;;;;;;5056443;22;20076;-76
2021/01/19 11:31:23;;;;;;;10.68;2.13;;;;;;;;;;5037735;28;20024;-75
2021/01/19 11:33:50;;;;;;;9.95;2.00;;;;;;;;;;5019339;28;20052;-76
2021/01/19 11:36:18;;;;;;;8.75;1.98;;;;;;;;;;5041803;28;20571;-76
2021/01/19 11:38:45;;;;;;;10.88;1.73;;;;;;;;;;5052702;22;20060;-76
2021/01/19 11:41:16;;;;;;;14.15;2.05;;;;;;;;;;5033625;28;20394;-76
2021/01/19 11:43:43;;;;;;;10.88;2.13;;;;;;;;;;5031360;28;20033;-75
2021/01/19 11:46:11;;;;;;;10.63;1.80;;;;;;;;;;5034313;28;20028;-76
2021/01/19 11:48:38;;;;;;;13.63;1.80;;;;;;;;;;5032129;28;20053;-75
2021/01/19 11:51:06;;;;;;;10.55;1.73;;;;;;;;;;5033810;28;20037;-75
2021/01/19 11:53:33;;;;;;;21.48;2.35;;;;;;;;;;5030226;28;20025;-75
2021/01/19 11:56:02;;;;;;;11.82;1.80;;;;;;;;;;5101383;22;20056;-75
2021/01/19 11:58:30;;;;;;;11.30;1.70;;;;;;;;;;5089505;28;20032;-76
2021/01/19 12:00:57;;;;;;;18.58;3.22;;;;;;;;;;5112751;28;20035;-77
2021/01/19 12:03:24;;;;;;;14.35;2.55;;;;;;;;;;5109824;28;20031;-76
2021/01/19 12:05:51;;;;;;;11.80;2.45;;;;;;;;;;5111766;28;20043;-76
2021/01/19 12:08:18;;;;;;;13.20;1.55;;;;;;;;;;5112278;28;20449;-76
2021/01/19 12:10:45;;;;;;;16.90;3.13;;;;;;;;;;5112705;28;20034;-76
2021/01/19 12:13:13;;;;;;;16.52;3.25;;;;;;;;;;5108524;28;20030;-76
2021/01/19 12:15:42;;;;;;;14.85;2.22;;;;;;;;;;5109191;28;20476;-76
2021/01/19 12:18:10;;;;;;;13.60;2.20;;;;;;;;;;5108908;28;20065;-76
2021/01/19 12:20:37;;;;;;;13.50;2.45;;;;;;;;;;5112627;28;20026;-76
2021/01/19 12:23:05;;;;;;;12.43;2.08;;;;;;;;;;5113234;28;20519;-76
2021/01/19 12:25:32;;;;;;;13.02;2.15;;;;;;;;;;5113875;28;20425;-76
2021/01/19 12:28:02;;;;;;;15.82;2.30;;;;;;;;;;5110897;22;20063;-76
2021/01/19 12:30:30;;;;;;;12.50;2.90;;;;;;;;;;5098191;28;20074;-76
2021/01/19 12:32:57;;;;;;;15.18;2.85;;;;;;;;;;5098570;28;20028;-76
2021/01/19 12:35:24;;;;;;;23.60;3.38;;;;;;;;;;5096632;28;20024;-76
2021/01/19 12:37:55;;;;;;;14.45;2.28;;;;;;;;;;5104755;28;20028;-75
2021/01/19 12:40:22;;;;;;;22.73;4.63;;;;;;;;;;5102552;28;20050;-76
2021/01/19 12:42:50;;;;;;;14.80;2.63;;;;;;;;;;5098635;28;20040;-76
2021/01/19 12:45:20;;;;;;;19.52;3.45;;;;;;;;;;5112668;28;20110;-76
2021/01/19 12:47:51;;;;;;;18.85;2.38;;;;;;;;;;5098779;28;20100;-76
2021/01/19 12:50:18;;;;;;;14.63;4.03;;;;;;;;;;5108699;28;20023;-76
2021/01/19 12:52:45;;;;;;;18.42;3.85;;;;;;;;;;5095534;28;20088;-76
2021/01/19 12:55:13;;;;;;;16.73;3.67;;;;;;;;;;5099407;28;20019;-76
2021/01/19 12:57:40;;;;;;;19.63;4.30;;;;;;;;;;5106718;28;20028;-76
2021/01/19 13:00:08;;;;;;;17.98;3.03;;;;;;;;;;5112894;28;20128;-76
2021/01/19 13:02:35;;;;;;;23.42;3.92;;;;;;;;;;5105585;28;20127;-76
2021/01/19 13:05:02;;;;;;;26.10;3.85;;;;;;;;;;5105212;28;20020;-76
2021/01/19 13:07:30;;;;;;;24.90;3.42;;;;;;;;;;5093522;28;20483;-76
2021/01/19 13:09:57;;;;;;;15.35;3.15;;;;;;;;;;5107808;28;20372;-76
2021/01/19 13:12:25;;;;;;;14.77;3.30;;;;;;;;;;5107106;28;20031;-76
2021/01/19 13:14:52;;;;;;;19.92;3.28;;;;;;;;;;5108849;28;20116;-75
2021/01/19 13:17:19;;;;;;;22.23;3.20;;;;;;;;;;5108567;28;20035;-76
2021/01/19 13:19:47;;;;;;;17.95;2.50;;;;;;;;;;5094344;28;20123;-76
2021/01/19 13:22:14;;;;;;;16.67;3.53;;;;;;;;;;5110017;28;20040;-76
2021/01/19 13:24:41;;;;;;;22.50;3.70;;;;;;;;;;5102910;28;20030;-76
2021/01/19 13:27:08;;;;;;;18.83;3.55;;;;;;;;;;5103858;27;20391;-76
2021/01/19 13:29:35;;;;;;;14.88;2.15;;;;;;;;;;5115508;22;20173;-76
2021/01/19 13:32:03;;;;;;;14.70;2.60;;;;;;;;;;5095237;22;20045;-77
2021/01/19 13:34:30;;;;;;;9.93;1.83;;;;;;;;;;5028151;28;20182;-76
2021/01/19 13:36:58;;;;;;;9.52;2.20;;;;;;;;;;5076258;22;20530;-76
2021/01/19 13:39:25;;;;;;;16.20;2.63;;;;;;;;;;5070254;28;20035;-76
2021/01/19 13:41:56;;;;;;;16.27;3.70;;;;;;;;;;5070282;28;20028;-76
2021/01/19 13:44:23;;;;;;;10.00;1.85;;;;;;;;;;5069043;28;20100;-76
2021/01/19 13:46:50;;;;;;;11.48;1.65;;;;;;;;;;5098123;22;20047;-76
2021/01/19 13:49:18;;;;;;;15.10;1.63;;;;;;;;;;5093419;28;20023;-76
2021/01/19 13:51:45;;;;;;;15.00;2.72;;;;;;;;;;5095274;28;20028;-76
2021/01/19 13:54:12;;;;;;;15.15;1.92;;;;;;;;;;5090530;28;20400;-76
2021/01/19 13:56:40;;;;;;;15.05;2.40;;;;;;;;;;5091474;28;20422;-77
2021/01/19 13:59:07;;;;;;;14.43;2.95;;;;;;;;;;5078963;28;20025;-76
2021/01/19 14:01:37;;;;;;;17.10;3.03;;;;;;;;;;5116594;22;20098;-76
2021/01/19 14:04:04;;;;;;;14.98;2.65;;;;;;;;;;5096546;28;20070;-76
2021/01/19 14:06:32;;;;;;;14.73;2.30;;;;;;;;;;5095521;28;20031;-76
2021/01/19 14:08:59;;;;;;;13.55;2.67;;;;;;;;;;5089875;28;20499;-76
2021/01/19 14:11:26;;;;;;;15.90;2.47;;;;;;;;;;5091494;28;20050;-76
2021/01/19 14:13:54;;;;;;;15.05;3.03;;;;;;;;;;5089560;28;20103;-76
2021/01/19 14:16:22;;;;;;;13.98;2.17;;;;;;;;;;5092074;28;20020;-76
2021/01/19 14:18:49;;;;;;;14.68;2.67;;;;;;;;;;5086091;28;20043;-75
2021/01/19 14:21:20;;;;;;;12.45;2.72;;;;;;;;;;5090428;28;20131;-75
2021/01/19 14:23:48;;;;;;;15.35;2.10;;;;;;;;;;5089513;28;20028;-76
2021/01/19 14:26:22;;;;;;;20.15;3.38;;;;;;;;;;5085053;28;20539;-75
2021/01/19 14:28:49;;;;;;;;;;;;;;;;;;5086184;28;20036;-76
2021/01/19 14:31:17;;;;;;;14.73;4.32;;;;;;;;;;5088926;28;20386;-76
2021/01/19 14:33:44;;;;;;;19.95;3.30;;;;;;;;;;5083598;28;20055;-76
2021/01/19 14:36:11;;;;;;;19.63;3.45;;;;;;;;;;5067841;22;20083;-75
2021/01/19 14:38:38;;;;;;;16.20;2.42;;;;;;;;;;5046072;28;20052;-75
2021/01/19 14:41:06;;;;;;;15.30;2.58;;;;;;;;;;5044527;28;20477;-76
2021/01/19 14:43:33;;;;;;;21.42;3.05;;;;;;;;;;5045113;28;20036;-76
2021/01/19 14:46:00;;;;;;;12.50;3.22;;;;;;;;;;5040880;28;20445;-76
2021/01/19 14:48:27;;;;;;;14.18;3.28;;;;;;;;;;5045105;28;20067;-76
2021/01/19 14:50:54;;;;;;;13.45;3.35;;;;;;;;;;5047239;28;20576;-76